createdAt,value
2023-03-29T00:01:06.873Z,7.84
2023-03-29T00:03:40.556Z,7.83
2023-03-29T00:06:22.365Z,7.81
2023-03-29T00:08:54.886Z,7.78
2023-03-29T00:11:27.933Z,7.79
2023-03-29T00:14:00.459Z,7.74
2023-03-29T00:16:33.288Z,7.68
2023-03-29T00:19:05.876Z,7.69
2023-03-29T00:21:38.505Z,7.67
2023-03-29T00:24:10.998Z,7.66
2023-03-29T00:26:43.513Z,7.69
2023-03-29T00:29:15.832Z,7.73
2023-03-29T00:31:54.064Z,7.71
2023-03-29T00:34:31.039Z,7.69
2023-03-29T00:37:04.389Z,7.69
2023-03-29T00:39:37.291Z,7.68
2023-03-29T00:42:17.713Z,7.63
2023-03-29T00:45:12.705Z,7.56
2023-03-29T00:47:57.656Z,7.46
2023-03-29T00:50:48.656Z,7.50
2023-03-29T00:53:46.828Z,7.35
2023-03-29T00:56:40.202Z,7.34
2023-03-29T00:59:21.841Z,7.33
2023-03-29T01:02:00.111Z,7.38
2023-03-29T01:04:46.507Z,7.35
2023-03-29T01:07:24.010Z,7.27
2023-03-29T01:10:09.308Z,7.29
2023-03-29T01:12:48.995Z,7.30
2023-03-29T01:15:29.026Z,7.16
2023-03-29T01:18:02.256Z,7.07
2023-03-29T01:21:03.466Z,7.07
2023-03-29T01:23:46.093Z,7.08
2023-03-29T01:27:02.544Z,6.86
2023-03-29T01:29:37.712Z,6.85
2023-03-29T01:32:18.438Z,6.73
2023-03-29T01:34:59.040Z,6.82
2023-03-29T01:37:39.147Z,6.81
2023-03-29T01:40:12.280Z,6.81
2023-03-29T01:43:11.769Z,6.73
2023-03-29T01:45:48.802Z,6.67
2023-03-29T01:48:48.659Z,6.80
2023-03-29T01:51:38.809Z,6.89
2023-03-29T01:54:35.959Z,6.90
2023-03-29T01:57:10.806Z,6.95
2023-03-29T01:59:45.047Z,6.92
2023-03-29T02:02:19.542Z,6.95
2023-03-29T02:04:54.636Z,6.99
2023-03-29T02:07:37.621Z,6.93
2023-03-29T02:10:11.880Z,6.93
2023-03-29T02:12:44.134Z,6.84
2023-03-29T02:15:20.415Z,6.83
2023-03-29T02:17:53.225Z,6.83
2023-03-29T02:20:40.758Z,6.78
2023-03-29T02:23:39.090Z,6.70
2023-03-29T02:26:11.976Z,6.59
2023-03-29T02:28:44.410Z,6.58
2023-03-29T02:31:44.039Z,6.55
2023-03-29T02:34:19.514Z,6.53
2023-03-29T02:36:59.042Z,6.54
2023-03-29T02:39:34.930Z,6.57
2023-03-29T02:42:08.539Z,6.59
2023-03-29T02:44:41.721Z,6.64
2023-03-29T02:47:24.337Z,6.73
2023-03-29T02:49:57.062Z,6.71
2023-03-29T02:52:36.112Z,6.64
2023-03-29T02:55:15.222Z,6.64
2023-03-29T02:57:47.339Z,6.63
2023-03-29T03:00:20.292Z,6.58
2023-03-29T03:02:52.610Z,6.38
2023-03-29T03:05:25.148Z,6.38
2023-03-29T03:07:58.684Z,6.46
2023-03-29T03:10:33.436Z,6.52
2023-03-29T03:13:05.998Z,6.60
2023-03-29T03:15:42.907Z,6.56
2023-03-29T03:18:16.913Z,6.61
2023-03-29T03:21:02.215Z,6.50
2023-03-29T03:23:34.843Z,6.62
2023-03-29T03:26:07.086Z,6.61
2023-03-29T03:28:39.939Z,6.72
2023-03-29T03:31:14.221Z,6.76
2023-03-29T03:33:46.817Z,6.86
2023-03-29T03:36:19.016Z,6.78
2023-03-29T03:38:51.858Z,6.77
2023-03-29T03:41:27.290Z,6.80
2023-03-29T03:44:00.065Z,6.80
2023-03-29T03:46:32.335Z,6.80
2023-03-29T03:49:04.926Z,6.69
2023-03-29T03:51:37.108Z,6.72
2023-03-29T03:54:09.470Z,6.75
2023-03-29T03:56:41.865Z,6.85
2023-03-29T03:59:14.118Z,6.85
2023-03-29T04:01:46.397Z,6.75
2023-03-29T04:04:19.863Z,6.72
2023-03-29T04:06:53.178Z,6.61
2023-03-29T04:09:26.015Z,6.53
2023-03-29T04:11:59.685Z,6.59
2023-03-29T04:14:32.452Z,6.66
2023-03-29T04:17:06.681Z,6.78
2023-03-29T04:19:38.892Z,6.56
2023-03-29T04:22:11.127Z,6.53
2023-03-29T04:24:43.719Z,6.63
2023-03-29T04:27:15.857Z,6.65
2023-03-29T04:29:49.099Z,6.71
2023-03-29T04:32:21.328Z,6.66
2023-03-29T04:34:53.412Z,6.54
2023-03-29T04:37:25.879Z,6.67
2023-03-29T04:40:00.602Z,6.59
2023-03-29T04:42:34.457Z,6.55
2023-03-29T04:45:07.350Z,6.48
2023-03-29T04:47:42.242Z,6.55
2023-03-29T04:50:14.858Z,6.63
2023-03-29T04:52:47.409Z,6.71
2023-03-29T04:55:19.828Z,6.76
2023-03-29T04:57:55.860Z,6.70
2023-03-29T05:00:28.801Z,6.59
2023-03-29T05:03:01.263Z,6.58
2023-03-29T05:05:39.488Z,6.60
2023-03-29T05:08:12.632Z,6.60
2023-03-29T05:10:45.187Z,6.58
2023-03-29T05:13:20.121Z,6.71
2023-03-29T05:15:52.763Z,6.75
2023-03-29T05:18:25.430Z,6.67
2023-03-29T05:20:58.971Z,6.71
2023-03-29T05:23:32.016Z,6.77
2023-03-29T05:26:05.422Z,6.76
2023-03-29T05:28:37.673Z,6.75
2023-03-29T05:31:10.509Z,6.79
2023-03-29T05:33:43.388Z,6.80
2023-03-29T05:36:19.280Z,6.85
2023-03-29T05:38:51.515Z,6.88
2023-03-29T05:41:24.922Z,6.93
2023-03-29T05:43:57.086Z,6.93
2023-03-29T05:46:29.508Z,6.83
2023-03-29T05:49:02.657Z,6.87
2023-03-29T05:51:35.633Z,6.87
2023-03-29T05:54:07.804Z,6.89
2023-03-29T05:56:47.049Z,6.92
2023-03-29T05:59:19.951Z,7.06
2023-03-29T06:01:52.178Z,7.03
2023-03-29T06:04:24.868Z,7.02
2023-03-29T06:06:57.642Z,7.04
2023-03-29T06:09:29.966Z,7.07
2023-03-29T06:12:04.372Z,7.10
2023-03-29T06:14:37.525Z,7.08
2023-03-29T06:17:09.852Z,7.13
2023-03-29T06:19:42.570Z,7.28
2023-03-29T06:22:15.025Z,7.26
2023-03-29T06:24:47.381Z,7.39
2023-03-29T06:27:19.877Z,7.35
2023-03-29T06:29:52.868Z,7.39
2023-03-29T06:32:25.963Z,7.38
2023-03-29T06:34:58.286Z,7.35
2023-03-29T06:37:32.219Z,7.33
2023-03-29T06:40:09.554Z,7.46
2023-03-29T06:42:46.302Z,7.44
2023-03-29T06:45:19.701Z,7.48
2023-03-29T06:47:53.931Z,7.51
2023-03-29T06:50:26.766Z,7.50
2023-03-29T06:52:58.972Z,7.43
2023-03-29T06:55:32.160Z,7.53
2023-03-29T06:58:04.541Z,7.62
2023-03-29T07:00:39.267Z,7.54
2023-03-29T07:03:14.994Z,7.57
2023-03-29T07:05:48.193Z,7.54
2023-03-29T07:08:21.454Z,7.44
2023-03-29T07:10:54.216Z,7.50
2023-03-29T07:13:26.585Z,7.53
2023-03-29T07:15:58.979Z,7.62
2023-03-29T07:18:31.362Z,7.81
2023-03-29T07:21:04.951Z,7.82
2023-03-29T07:23:37.781Z,7.98
2023-03-29T07:26:11.395Z,7.89
2023-03-29T07:28:43.676Z,7.83
2023-03-29T07:31:25.649Z,7.82
2023-03-29T07:34:00.970Z,7.88
2023-03-29T07:36:34.720Z,7.84
2023-03-29T07:39:09.363Z,7.83
2023-03-29T07:41:41.667Z,8.05
2023-03-29T07:44:14.231Z,8.25
2023-03-29T07:46:46.526Z,8.34
2023-03-29T07:49:21.010Z,8.34
2023-03-29T07:51:55.248Z,8.21
2023-03-29T07:54:27.460Z,8.23
2023-03-29T07:56:59.841Z,8.21
2023-03-29T07:59:32.292Z,8.17
2023-03-29T08:02:04.754Z,8.24
2023-03-29T08:04:37.250Z,8.10
2023-03-29T08:07:14.858Z,8.16
2023-03-29T08:09:48.803Z,8.17
2023-03-29T08:12:23.152Z,8.37
2023-03-29T08:14:56.880Z,8.35
2023-03-29T08:17:29.121Z,8.23
2023-03-29T08:20:01.521Z,8.37
2023-03-29T08:22:34.405Z,8.30
2023-03-29T08:25:08.553Z,8.35
2023-03-29T08:27:46.752Z,8.31
2023-03-29T08:30:19.457Z,8.49
2023-03-29T08:32:55.189Z,8.66
2023-03-29T08:35:27.900Z,8.67
2023-03-29T08:38:00.263Z,8.46
2023-03-29T08:40:32.598Z,8.37
2023-03-29T08:43:26.316Z,8.51
2023-03-29T08:46:20.207Z,8.61
2023-03-29T08:48:57.951Z,8.73
2023-03-29T08:51:57.035Z,8.87
2023-03-29T08:54:40.199Z,8.71
2023-03-29T08:57:35.703Z,8.69
2023-03-29T09:00:18.534Z,9.05
2023-03-29T09:02:54.130Z,9.03
2023-03-29T09:05:45.338Z,9.02
2023-03-29T09:08:19.972Z,8.85
2023-03-29T09:11:07.355Z,8.92
2023-03-29T09:14:21.666Z,8.88
2023-03-29T09:17:16.935Z,8.93
2023-03-29T09:20:07.078Z,9.03
2023-03-29T09:22:57.937Z,9.20
2023-03-29T09:25:53.600Z,9.25
2023-03-29T09:28:37.491Z,9.41
2023-03-29T09:31:21.756Z,9.72
2023-03-29T09:34:09.288Z,9.71
2023-03-29T09:37:13.784Z,9.71
2023-03-29T09:39:46.366Z,9.68
2023-03-29T09:42:19.962Z,9.50
2023-03-29T09:44:57.572Z,9.41
2023-03-29T09:47:55.222Z,9.45
2023-03-29T09:50:37.123Z,9.67
2023-03-29T09:53:14.620Z,9.61
2023-03-29T09:55:50.645Z,9.24
2023-03-29T09:58:28.584Z,9.13
2023-03-29T10:01:10.567Z,9.02
2023-03-29T10:03:49.471Z,9.19
2023-03-29T10:06:25.705Z,9.08
2023-03-29T10:09:01.787Z,9.18
2023-03-29T10:11:37.153Z,9.45
2023-03-29T10:14:43.438Z,9.32
2023-03-29T10:17:29.726Z,9.44
2023-03-29T10:20:13.366Z,9.45
2023-03-29T10:22:59.734Z,9.39
2023-03-29T10:25:34.656Z,9.62
2023-03-29T10:28:17.560Z,9.70
2023-03-29T10:30:55.950Z,9.71
2023-03-29T10:33:36.866Z,9.76
2023-03-29T10:36:13.717Z,9.91
2023-03-29T10:38:46.794Z,9.98
2023-03-29T10:41:22.124Z,10.07
2023-03-29T10:43:55.291Z,10.16
2023-03-29T10:46:44.404Z,10.08
2023-03-29T10:49:25.196Z,9.73
2023-03-29T10:51:57.693Z,9.68
2023-03-29T10:54:31.346Z,9.76
2023-03-29T10:57:10.650Z,9.79
2023-03-29T10:59:42.921Z,9.89
2023-03-29T11:02:16.776Z,10.06
2023-03-29T11:05:07.114Z,10.42
2023-03-29T11:07:55.796Z,10.86
2023-03-29T11:11:11.556Z,11.07
2023-03-29T11:14:00.022Z,11.39
2023-03-29T11:16:52.753Z,11.39
2023-03-29T11:20:03.711Z,11.44
2023-03-29T11:23:07.767Z,11.62
2023-03-29T11:26:27.977Z,11.72
2023-03-29T11:29:57.365Z,12.10
2023-03-29T11:32:34.845Z,11.85
2023-03-29T11:38:54.047Z,12.51
2023-03-29T11:41:36.463Z,12.59
2023-03-29T11:44:30.959Z,12.38
2023-03-29T11:47:11.259Z,12.59
2023-03-29T11:49:47.279Z,12.84
2023-03-29T11:52:32.872Z,12.61
2023-03-29T11:55:29.083Z,12.77
2023-03-29T11:58:15.537Z,12.59
2023-03-29T12:01:02.858Z,12.72
2023-03-29T12:03:54.811Z,12.69
2023-03-29T12:06:53.642Z,12.68
2023-03-29T12:09:51.207Z,13.19
2023-03-29T12:12:55.949Z,13.12
2023-03-29T12:15:37.103Z,13.57
2023-03-29T12:18:17.534Z,13.92
2023-03-29T12:20:59.224Z,14.03
2023-03-29T12:23:33.304Z,14.43
2023-03-29T12:26:30.503Z,14.83
2023-03-29T12:29:34.847Z,15.04
2023-03-29T12:32:17.255Z,14.35
2023-03-29T12:34:52.334Z,14.24
2023-03-29T12:37:49.413Z,14.29
2023-03-29T12:40:26.375Z,14.20
2023-03-29T12:43:07.505Z,14.64
2023-03-29T12:45:51.169Z,14.56
2023-03-29T12:48:30.275Z,14.36
2023-03-29T12:51:13.562Z,14.21
2023-03-29T12:54:09.583Z,14.46
2023-03-29T12:56:52.325Z,15.03
2023-03-29T12:59:43.267Z,15.34
2023-03-29T13:02:15.495Z,15.21
2023-03-29T13:04:57.682Z,14.95
2023-03-29T13:07:45.961Z,15.27
2023-03-29T13:10:42.350Z,15.14
2023-03-29T13:13:24.306Z,15.02
2023-03-29T13:16:08.275Z,15.12
2023-03-29T13:19:08.996Z,15.22
2023-03-29T13:22:18.447Z,14.82
2023-03-29T13:25:58.402Z,15.24
2023-03-29T13:29:34.032Z,14.71
2023-03-29T13:32:51.313Z,14.83
2023-03-29T13:35:50.805Z,15.03
2023-03-29T13:38:29.011Z,15.20
2023-03-29T13:41:07.463Z,14.57
2023-03-29T13:43:54.086Z,14.18
2023-03-29T13:46:41.797Z,14.30
2023-03-29T13:49:21.449Z,14.51
2023-03-29T13:51:54.003Z,14.71
2023-03-29T13:54:38.068Z,14.75
2023-03-29T13:57:25.767Z,14.47
2023-03-29T14:00:14.289Z,14.66
2023-03-29T14:03:04.482Z,14.85
2023-03-29T14:05:39.262Z,14.44
2023-03-29T14:08:23.924Z,14.56
2023-03-29T14:10:56.568Z,14.40
2023-03-29T14:13:30.337Z,14.27
2023-03-29T14:16:10.681Z,14.35
2023-03-29T14:18:45.231Z,14.19
2023-03-29T14:21:21.456Z,14.23
2023-03-29T14:24:03.537Z,14.36
2023-03-29T14:26:36.205Z,14.20
2023-03-29T14:29:12.282Z,14.46
2023-03-29T14:31:44.571Z,14.86
2023-03-29T14:34:19.390Z,15.14
2023-03-29T14:36:54.361Z,15.38
2023-03-29T14:39:26.877Z,15.12
2023-03-29T14:41:59.534Z,14.80
2023-03-29T14:44:35.142Z,14.43
2023-03-29T14:47:10.227Z,14.49
2023-03-29T14:49:42.641Z,14.62
2023-03-29T14:52:15.192Z,14.49
2023-03-29T14:54:52.232Z,14.19
2023-03-29T14:57:29.285Z,13.93
2023-03-29T15:00:17.063Z,13.90
2023-03-29T15:03:05.336Z,13.73
2023-03-29T15:05:41.386Z,13.69
2023-03-29T15:08:38.759Z,13.83
2023-03-29T15:11:26.720Z,13.99
2023-03-29T15:14:52.077Z,14.07
2023-03-29T15:17:51.098Z,14.06
2023-03-29T15:20:33.170Z,14.01
2023-03-29T15:23:55.927Z,13.86
2023-03-29T15:26:36.942Z,13.69
2023-03-29T15:29:23.631Z,13.56
2023-03-29T15:31:59.886Z,13.66
2023-03-29T15:34:33.832Z,13.73
2023-03-29T15:37:07.882Z,13.72
2023-03-29T15:39:44.364Z,13.81
2023-03-29T15:42:17.016Z,13.77
2023-03-29T15:44:49.187Z,13.61
2023-03-29T15:47:21.345Z,13.52
2023-03-29T15:49:53.647Z,13.67
2023-03-29T15:52:26.075Z,13.63
2023-03-29T15:54:58.254Z,13.33
2023-03-29T15:57:30.648Z,13.24
2023-03-29T16:00:07.888Z,13.43
2023-03-29T16:02:41.173Z,13.37
2023-03-29T16:05:13.751Z,13.31
2023-03-29T16:08:10.597Z,13.35
2023-03-29T16:10:44.132Z,13.24
2023-03-29T16:13:16.485Z,13.23
2023-03-29T16:15:48.658Z,13.09
2023-03-29T16:18:20.921Z,13.07
2023-03-29T16:21:13.857Z,13.11
2023-03-29T16:23:47.399Z,13.15
2023-03-29T16:26:19.616Z,13.13
2023-03-29T16:29:03.758Z,13.02
2023-03-29T16:31:36.683Z,12.96
2023-03-29T16:34:13.220Z,12.95
2023-03-29T16:36:46.743Z,12.91
2023-03-29T16:39:18.937Z,12.81
2023-03-29T16:41:51.201Z,12.78
2023-03-29T16:44:24.883Z,12.72
2023-03-29T16:46:58.628Z,12.66
2023-03-29T16:49:31.053Z,12.61
2023-03-29T16:52:03.173Z,12.62
2023-03-29T16:54:35.399Z,12.53
2023-03-29T16:57:07.899Z,12.48
2023-03-29T16:59:42.027Z,12.50
2023-03-29T17:02:14.208Z,12.51
2023-03-29T17:04:46.656Z,12.53
2023-03-29T17:07:18.891Z,12.50
2023-03-29T17:09:51.543Z,12.51
2023-03-29T17:12:24.268Z,12.48
2023-03-29T17:14:56.704Z,12.52
2023-03-29T17:17:29.404Z,12.58
2023-03-29T17:20:01.887Z,12.53
2023-03-29T17:22:34.502Z,12.47
2023-03-29T17:25:08.515Z,12.34
2023-03-29T17:27:40.638Z,12.31
2023-03-29T17:30:13.705Z,12.20
2023-03-29T17:32:46.027Z,12.15
2023-03-29T17:35:18.474Z,12.15
2023-03-29T17:37:50.541Z,12.13
2023-03-29T17:40:23.046Z,12.15
2023-03-29T17:42:55.338Z,12.12
2023-03-29T17:45:27.544Z,12.09
2023-03-29T17:47:59.784Z,12.12
2023-03-29T17:50:41.399Z,12.02
2023-03-29T17:53:13.708Z,12.04
2023-03-29T17:55:46.118Z,12.01
2023-03-29T17:58:19.647Z,12.01
2023-03-29T18:00:52.111Z,12.05
2023-03-29T18:03:24.323Z,12.05
2023-03-29T18:05:56.857Z,12.06
2023-03-29T18:08:29.132Z,12.00
2023-03-29T18:11:19.727Z,12.03
2023-03-29T18:13:53.839Z,12.00
2023-03-29T18:16:26.481Z,11.97
2023-03-29T18:18:58.611Z,11.90
2023-03-29T18:21:30.866Z,11.89
2023-03-29T18:24:34.010Z,11.95
2023-03-29T18:27:06.339Z,11.98
2023-03-29T18:29:38.770Z,12.03
2023-03-29T18:32:11.737Z,12.03
2023-03-29T18:35:08.138Z,11.98
2023-03-29T18:37:43.658Z,11.93
2023-03-29T18:40:20.193Z,11.94
2023-03-29T18:42:52.587Z,11.96
2023-03-29T18:45:40.361Z,11.97
2023-03-29T18:48:13.197Z,12.01
2023-03-29T18:50:46.805Z,11.91
2023-03-29T18:53:19.845Z,11.90
2023-03-29T18:55:52.062Z,11.94
2023-03-29T18:58:24.255Z,11.94
2023-03-29T19:01:03.500Z,11.91
2023-03-29T19:03:36.557Z,11.90
2023-03-29T19:06:09.330Z,11.91
2023-03-29T19:08:42.235Z,11.89
2023-03-29T19:11:38.681Z,11.89
2023-03-29T19:14:13.175Z,11.91
2023-03-29T19:16:45.664Z,11.93
2023-03-29T19:19:19.006Z,11.85
2023-03-29T19:21:51.256Z,11.85
2023-03-29T19:24:24.431Z,11.81
2023-03-29T19:26:57.613Z,11.78
2023-03-29T19:29:29.969Z,11.67
2023-03-29T19:32:02.550Z,11.67
2023-03-29T19:34:34.922Z,11.68
2023-03-29T19:37:07.264Z,11.61
2023-03-29T19:39:41.266Z,11.64
2023-03-29T19:42:13.468Z,11.67
2023-03-29T19:44:45.698Z,11.67
2023-03-29T19:47:18.003Z,11.64
2023-03-29T19:49:50.544Z,11.62
2023-03-29T19:52:24.172Z,11.59
2023-03-29T19:54:58.737Z,11.59
2023-03-29T19:57:34.418Z,11.58
2023-03-29T20:00:08.407Z,11.51
2023-03-29T20:02:42.676Z,11.52
2023-03-29T20:06:06.649Z,11.55
2023-03-29T20:08:39.214Z,11.56
2023-03-29T20:11:13.925Z,11.60
2023-03-29T20:13:46.118Z,11.60
2023-03-29T20:16:19.325Z,11.63
2023-03-29T20:18:54.163Z,11.62
2023-03-29T20:21:26.337Z,11.58
2023-03-29T20:23:58.482Z,11.58
2023-03-29T20:26:30.880Z,11.53
2023-03-29T20:29:07.359Z,11.49
2023-03-29T20:31:39.696Z,11.51
2023-03-29T20:34:12.022Z,11.50
2023-03-29T20:36:45.692Z,11.54
2023-03-29T20:39:19.018Z,11.53
2023-03-29T20:41:51.836Z,11.54
2023-03-29T20:44:28.594Z,11.52
2023-03-29T20:47:04.397Z,11.57
2023-03-29T20:49:37.753Z,11.53
2023-03-29T20:52:16.750Z,11.40
2023-03-29T20:54:49.774Z,11.39
2023-03-29T20:57:22.061Z,11.30
2023-03-29T20:59:54.353Z,11.31
2023-03-29T21:02:29.426Z,11.38
2023-03-29T21:05:02.499Z,11.40
2023-03-29T21:07:35.027Z,11.39
2023-03-29T21:10:07.877Z,11.33
2023-03-29T21:12:41.328Z,11.30
2023-03-29T21:15:17.925Z,11.25
2023-03-29T21:17:50.143Z,11.26
2023-03-29T21:20:22.451Z,11.20
2023-03-29T21:22:54.658Z,11.16
2023-03-29T21:25:26.927Z,11.19
2023-03-29T21:27:59.110Z,11.22
2023-03-29T21:30:32.187Z,11.25
2023-03-29T21:33:04.905Z,11.28
2023-03-29T21:35:37.433Z,11.31
2023-03-29T21:38:09.575Z,11.36
2023-03-29T21:40:41.808Z,11.32
2023-03-29T21:43:14.045Z,11.28
2023-03-29T21:45:50.640Z,11.33
2023-03-29T21:48:22.759Z,11.32
2023-03-29T21:50:55.107Z,11.34
2023-03-29T21:53:27.983Z,11.29
2023-03-29T21:56:00.703Z,11.28
2023-03-29T21:58:32.868Z,11.24
2023-03-29T22:01:07.478Z,11.32
2023-03-29T22:03:39.931Z,11.26
2023-03-29T22:06:14.430Z,11.24
2023-03-29T22:08:46.977Z,11.25
2023-03-29T22:11:19.964Z,11.15
2023-03-29T22:13:52.825Z,11.13
2023-03-29T22:16:26.057Z,11.13
2023-03-29T22:18:58.395Z,11.17
2023-03-29T22:21:31.467Z,11.15
2023-03-29T22:24:04.065Z,11.11
2023-03-29T22:26:36.199Z,11.14
2023-03-29T22:29:08.345Z,11.19
2023-03-29T22:31:40.499Z,11.21
2023-03-29T22:34:12.777Z,11.11
2023-03-29T22:36:50.780Z,11.06
2023-03-29T22:39:23.050Z,11.03
2023-03-29T22:41:55.196Z,11.02
2023-03-29T22:44:27.490Z,11.08
2023-03-29T22:47:00.107Z,11.11
2023-03-29T22:49:32.250Z,11.08
2023-03-29T22:52:05.056Z,11.11
2023-03-29T22:54:37.156Z,11.00
2023-03-29T22:57:09.334Z,11.04
2023-03-29T22:59:41.547Z,11.14
2023-03-29T23:02:13.673Z,11.11
2023-03-29T23:04:46.027Z,11.08
2023-03-29T23:07:18.274Z,11.02
2023-03-29T23:09:50.779Z,10.99
2023-03-29T23:12:28.136Z,10.99
2023-03-29T23:15:00.676Z,11.04
2023-03-29T23:17:33.305Z,11.08
2023-03-29T23:20:06.469Z,11.08
2023-03-29T23:22:39.905Z,11.06
2023-03-29T23:25:12.219Z,11.07
2023-03-29T23:27:44.312Z,10.95
2023-03-29T23:30:18.648Z,10.93
2023-03-29T23:32:54.804Z,10.90
2023-03-29T23:35:27.162Z,10.83
2023-03-29T23:37:59.955Z,10.79
2023-03-29T23:40:33.405Z,10.75
2023-03-29T23:43:05.517Z,10.82
2023-03-29T23:45:37.685Z,10.83
2023-03-29T23:48:09.787Z,10.83
2023-03-29T23:50:46.588Z,10.78
2023-03-29T23:53:20.074Z,10.84
2023-03-29T23:55:52.250Z,10.90
2023-03-29T23:58:25.006Z,10.96
